Time;durP1;ratioP1;P1;durP2;ratioP2;P2;SDS_P1;SDS_P2;PMS_P1;PMS_P2;Temp;Humidity;BMP_temperature;BMP_pressure;BME280_temperature;BME280_humidity;BME280_pressure;Samples;Min_cycle;Max_cycle;Signal;HPM_P1;HPM_P2
2021/12/03 00:00:28;;;;;;;0.25;0.25;;;1.90;99.90;;;;;;5035075;28;20112;-91
2021/12/03 00:02:55;;;;;;;0.65;0.65;;;1.90;99.90;;;;;;5035472;28;20080;-90
2021/12/03 00:05:21;;;;;;;1.05;1.05;;;1.90;99.90;;;;;;5034913;28;20044;-91
2021/12/03 00:07:47;;;;;;;0.30;0.30;;;1.80;99.90;;;;;;5034724;28;20021;-91
2021/12/03 00:10:15;;;;;;;0.30;0.30;;;2.00;99.90;;;;;;5034706;28;20029;-91
2021/12/03 00:12:41;;;;;;;1.40;1.30;;;2.10;99.90;;;;;;5035026;28;20029;-90
2021/12/03 00:15:10;;;;;;;0.63;0.63;;;2.10;99.90;;;;;;5034841;28;20078;-90
2021/12/03 00:17:37;;;;;;;0.63;0.63;;;1.80;99.90;;;;;;5034653;28;20421;-91
2021/12/03 00:20:07;;;;;;;0.20;0.20;;;1.70;99.90;;;;;;5034730;28;20028;-91
2021/12/03 00:22:33;;;;;;;1.13;1.10;;;1.60;99.90;;;;;;5034813;28;20028;-91
2021/12/03 00:24:58;;;;;;;0.30;0.30;;;1.70;99.90;;;;;;5034464;28;20017;-91
2021/12/03 00:27:24;;;;;;;0.30;0.30;;;1.80;99.90;;;;;;5034422;28;20025;-90
2021/12/03 00:29:50;;;;;;;0.63;0.63;;;1.80;99.90;;;;;;5034442;28;20036;-91
2021/12/03 00:32:16;;;;;;;0.57;0.57;;;2.00;99.90;;;;;;5034841;28;20029;-91
2021/12/03 00:34:42;;;;;;;0.30;0.30;;;2.00;99.90;;;;;;5034638;28;20033;-91
2021/12/03 00:37:07;;;;;;;0.52;0.52;;;1.80;99.90;;;;;;5034447;28;20393;-91
2021/12/03 00:39:33;;;;;;;0.30;0.30;;;1.80;99.90;;;;;;5034865;28;20028;-91
2021/12/03 00:42:02;;;;;;;0.30;0.30;;;1.80;99.90;;;;;;5034534;28;20090;-91
2021/12/03 00:44:30;;;;;;;0.20;0.20;;;1.80;99.90;;;;;;5036162;28;20017;-91
2021/12/03 00:46:57;;;;;;;0.73;0.73;;;1.70;99.90;;;;;;5036108;28;20025;-91
2021/12/03 00:49:23;;;;;;;0.50;0.50;;;1.80;99.90;;;;;;5036142;28;20064;-90
2021/12/03 00:51:48;;;;;;;0.50;0.50;;;1.90;99.90;;;;;;5034629;28;20065;-90
2021/12/03 00:54:15;;;;;;;0.88;0.88;;;2.10;99.90;;;;;;5034529;28;20021;-91
2021/12/03 00:56:41;;;;;;;0.35;0.35;;;2.10;99.90;;;;;;5035809;28;20098;-91
2021/12/03 00:59:08;;;;;;;0.77;0.77;;;2.00;99.90;;;;;;5038283;28;20032;-89
2021/12/03 01:01:34;;;;;;;0.30;0.30;;;1.80;99.90;;;;;;5038095;28;20020;-91
2021/12/03 01:04:00;;;;;;;0.30;0.30;;;1.80;99.90;;;;;;5038022;28;20029;-92
2021/12/03 01:06:26;;;;;;;0.55;0.55;;;1.80;99.90;;;;;;5037900;28;20661;-91
2021/12/03 01:08:52;;;;;;;2.40;2.25;;;1.80;99.90;;;;;;5038530;28;20131;-91
2021/12/03 01:11:18;;;;;;;0.30;0.30;;;1.90;99.90;;;;;;5063100;28;20013;-87
2021/12/03 01:13:45;;;;;;;0.22;0.22;;;1.90;99.90;;;;;;5061396;28;20047;-91
2021/12/03 01:16:14;;;;;;;0.40;0.40;;;2.00;99.90;;;;;;5037800;28;20052;-91
2021/12/03 01:18:41;;;;;;;0.50;0.50;;;1.90;99.90;;;;;;5037950;28;20031;-91
2021/12/03 01:21:09;;;;;;;5.07;1.95;;;1.90;99.90;;;;;;5038003;28;20116;-91
2021/12/03 01:23:34;;;;;;;0.90;0.82;;;1.90;99.90;;;;;;5037889;28;20017;-91
2021/12/03 01:26:01;;;;;;;0.30;0.30;;;1.80;99.90;;;;;;5037494;28;20417;-91
2021/12/03 01:28:27;;;;;;;0.47;0.47;;;1.90;99.90;;;;;;5041575;28;20082;-91
2021/12/03 01:30:55;;;;;;;0.30;0.30;;;1.90;99.90;;;;;;5037599;28;20036;-92
2021/12/03 01:33:21;;;;;;;0.30;0.30;;;1.90;99.90;;;;;;5037154;28;20060;-92
2021/12/03 01:35:47;;;;;;;0.20;0.20;;;2.10;99.90;;;;;;5037368;28;20025;-91
2021/12/03 01:38:13;;;;;;;0.30;0.30;;;2.00;99.90;;;;;;5037493;28;20025;-92
2021/12/03 01:40:40;;;;;;;0.82;0.82;;;2.10;99.90;;;;;;5037507;28;20071;-92
2021/12/03 01:43:08;;;;;;;0.82;0.82;;;2.10;99.90;;;;;;5037638;28;20480;-92
2021/12/03 01:45:37;;;;;;;0.50;0.50;;;2.10;99.90;;;;;;5037244;28;20029;-92
2021/12/03 01:48:03;;;;;;;3.83;1.98;;;1.90;99.90;;;;;;5037235;28;20040;-92
2021/12/03 01:50:35;;;;;;;1.85;1.75;;;1.60;99.90;;;;;;5037386;28;20029;-91
2021/12/03 01:53:01;;;;;;;;;;;1.60;99.90;;;;;;5037602;28;20079;-92
2021/12/03 01:55:28;;;;;;;2.00;1.23;;;1.90;99.90;;;;;;5037485;28;19905;-92
2021/12/03 01:57:53;;;;;;;1.17;1.08;;;2.00;99.90;;;;;;5037311;28;20025;-92
2021/12/03 02:00:32;;;;;;;0.60;0.60;;;2.10;99.90;;;;;;5036963;28;20466;-91
2021/12/03 02:02:58;;;;;;;0.93;0.88;;;1.90;99.90;;;;;;5049106;28;20009;-91
2021/12/03 02:05:24;;;;;;;0.40;0.40;;;1.80;99.90;;;;;;5054334;28;20036;-92
2021/12/03 02:07:51;;;;;;;0.47;0.47;;;1.70;99.90;;;;;;5040131;28;20031;-91
2021/12/03 02:10:19;;;;;;;3.45;1.90;;;1.50;99.90;;;;;;5036963;28;20029;-92
2021/12/03 02:12:45;;;;;;;0.30;0.30;;;1.60;99.90;;;;;;5037199;28;20021;-92
2021/12/03 02:15:12;;;;;;;0.30;0.30;;;1.50;99.90;;;;;;5036923;28;20025;-92
2021/12/03 02:17:39;;;;;;;1.25;1.15;;;1.60;99.90;;;;;;5036639;28;20088;-92
2021/12/03 02:20:09;;;;;;;0.32;0.32;;;1.70;99.90;;;;;;5036745;28;20059;-92
2021/12/03 02:22:36;;;;;;;0.35;0.35;;;1.70;99.90;;;;;;5036669;28;20107;-92
2021/12/03 02:25:01;;;;;;;0.30;0.30;;;1.80;99.90;;;;;;5036285;28;20025;-91
2021/12/03 02:27:27;;;;;;;0.30;0.30;;;1.70;99.90;;;;;;5036345;28;20640;-92
2021/12/03 02:29:53;;;;;;;1.15;1.05;;;1.70;99.90;;;;;;5036449;28;20124;-92
2021/12/03 02:32:19;;;;;;;0.95;0.90;;;1.80;99.90;;;;;;5036711;28;20094;-92
2021/12/03 02:34:44;;;;;;;2.83;0.82;;;1.80;99.90;;;;;;5036540;28;20047;-92
2021/12/03 02:37:10;;;;;;;2.08;1.98;;;1.70;99.90;;;;;;5036172;28;20028;-92
2021/12/03 02:39:36;;;;;;;1.17;1.17;;;1.70;99.90;;;;;;5036544;28;20409;-92
2021/12/03 02:42:02;;;;;;;0.38;0.38;;;1.60;99.90;;;;;;5036166;28;20104;-92
2021/12/03 02:44:27;;;;;;;0.63;0.63;;;1.60;99.90;;;;;;5036239;28;20047;-91
2021/12/03 02:46:53;;;;;;;0.30;0.30;;;1.70;99.90;;;;;;5036130;28;20033;-92
2021/12/03 02:49:19;;;;;;;1.55;1.45;;;1.70;99.90;;;;;;5036399;28;20160;-91
2021/12/03 02:51:45;;;;;;;0.98;0.40;;;1.70;99.90;;;;;;5035999;28;20025;-91
2021/12/03 02:54:11;;;;;;;1.33;1.23;;;1.60;99.90;;;;;;5036092;28;20036;-91
2021/12/03 02:56:37;;;;;;;0.40;0.40;;;1.60;99.90;;;;;;5035703;28;20029;-92
2021/12/03 02:59:04;;;;;;;1.05;1.02;;;1.50;99.90;;;;;;5035836;28;20047;-92
2021/12/03 03:01:31;;;;;;;1.30;1.20;;;1.40;99.90;;;;;;5052411;28;20478;-91
2021/12/03 03:03:56;;;;;;;0.30;0.30;;;1.50;99.90;;;;;;5035906;28;20025;-91
2021/12/03 03:06:22;;;;;;;0.40;0.40;;;1.60;99.90;;;;;;5035865;28;20035;-92
2021/12/03 03:08:48;;;;;;;1.70;1.38;;;1.70;99.90;;;;;;5036380;28;20072;-91
2021/12/03 03:11:16;;;;;;;0.73;0.73;;;1.70;99.90;;;;;;5036651;28;20021;-91
2021/12/03 03:13:43;;;;;;;1.25;0.80;;;1.70;99.90;;;;;;5036273;28;20020;-92
2021/12/03 03:16:09;;;;;;;0.30;0.30;;;1.70;99.90;;;;;;5035522;28;20021;-91
2021/12/03 03:18:36;;;;;;;1.15;1.05;;;1.80;99.90;;;;;;5035559;28;20119;-92
2021/12/03 03:21:04;;;;;;;3.88;3.50;;;1.60;99.90;;;;;;5034568;28;20017;-92
2021/12/03 03:23:32;;;;;;;0.40;0.40;;;1.40;99.90;;;;;;5035710;28;20025;-92
2021/12/03 03:25:59;;;;;;;0.52;0.52;;;1.30;99.90;;;;;;5035049;28;20017;-93
2021/12/03 03:28:25;;;;;;;2.55;0.73;;;1.60;99.90;;;;;;5035435;28;20067;-92
2021/12/03 03:30:54;;;;;;;1.83;1.27;;;1.50;99.90;;;;;;5035512;28;20036;-92
2021/12/03 03:33:21;;;;;;;0.50;0.40;;;1.40;99.90;;;;;;5035530;28;20036;-92
2021/12/03 03:35:47;;;;;;;6.47;2.53;;;1.40;99.90;;;;;;5035211;28;20029;-92
2021/12/03 03:38:16;;;;;;;1.92;1.83;;;1.40;99.90;;;;;;5035974;28;20618;-91
2021/12/03 03:40:43;;;;;;;0.80;0.60;;;1.40;99.90;;;;;;5043832;28;20028;-92
2021/12/03 03:43:10;;;;;;;0.30;0.30;;;1.50;99.90;;;;;;5035454;28;20027;-91
2021/12/03 03:45:37;;;;;;;0.30;0.30;;;1.40;99.90;;;;;;5035084;28;20025;-91
2021/12/03 03:48:04;;;;;;;0.30;0.30;;;1.70;99.90;;;;;;5035035;28;20128;-92
2021/12/03 03:50:30;;;;;;;0.70;0.70;;;1.90;99.90;;;;;;5034975;28;20021;-91
2021/12/03 03:52:56;;;;;;;0.75;0.75;;;1.90;99.90;;;;;;5035049;28;20028;-92
2021/12/03 03:55:24;;;;;;;3.47;1.45;;;1.90;99.90;;;;;;5058636;28;20040;-90
2021/12/03 03:57:51;;;;;;;0.73;0.73;;;1.80;99.90;;;;;;5059291;28;20032;-92
2021/12/03 04:00:21;;;;;;;0.30;0.30;;;1.60;99.90;;;;;;5035337;28;20025;-92
2021/12/03 04:02:47;;;;;;;0.30;0.30;;;1.50;99.90;;;;;;5034944;28;20428;-91
2021/12/03 04:05:13;;;;;;;3.88;1.88;;;1.50;99.90;;;;;;5037662;28;20029;-90
2021/12/03 04:07:40;;;;;;;0.60;0.60;;;1.50;99.90;;;;;;5041008;28;20025;-91
2021/12/03 04:10:08;;;;;;;0.30;0.30;;;1.50;99.90;;;;;;5040078;28;20063;-92
2021/12/03 04:12:34;;;;;;;0.30;0.30;;;1.50;99.90;;;;;;5035008;28;20017;-92
2021/12/03 04:15:00;;;;;;;1.13;1.02;;;1.60;99.90;;;;;;5034837;28;20029;-92
2021/12/03 04:17:27;;;;;;;0.50;0.50;;;1.70;99.90;;;;;;5035203;28;20026;-91
2021/12/03 04:19:53;;;;;;;3.35;2.47;;;1.40;99.90;;;;;;5034901;28;20025;-91
2021/12/03 04:22:23;;;;;;;0.30;0.30;;;1.30;99.90;;;;;;5034952;28;20477;-91
2021/12/03 04:24:53;;;;;;;2.95;1.95;;;1.30;99.90;;;;;;5034587;28;20021;-90
2021/12/03 04:27:19;;;;;;;2.83;1.65;;;1.50;99.90;;;;;;5034590;28;20082;-92
2021/12/03 04:29:45;;;;;;;4.85;1.75;;;1.40;99.90;;;;;;5034820;28;20436;-91
2021/12/03 04:32:26;;;;;;;0.40;0.40;;;1.40;99.90;;;;;;5068566;23;20050;-89
2021/12/03 04:34:55;;;;;;;0.38;0.38;;;1.50;99.90;;;;;;5022879;28;20038;-89
2021/12/03 04:37:24;;;;;;;0.30;0.30;;;1.40;99.90;;;;;;5034417;28;20033;-89
2021/12/03 04:39:51;;;;;;;0.30;0.30;;;1.60;99.90;;;;;;5042523;28;20033;-90
2021/12/03 04:42:34;;;;;;;1.95;0.68;;;1.70;99.90;;;;;;5044355;28;20093;-90
2021/12/03 04:45:12;;;;;;;1.48;1.38;;;1.50;99.90;;;;;;5043396;28;20064;-89
2021/12/03 04:47:48;;;;;;;2.92;0.60;;;1.40;99.90;;;;;;5043518;28;20020;-91
2021/12/03 04:50:23;;;;;;;2.45;1.75;;;1.50;99.90;;;;;;5042116;28;20022;-90
2021/12/03 04:52:52;;;;;;;0.32;0.32;;;1.30;99.90;;;;;;5045814;28;20029;-89
2021/12/03 04:55:29;;;;;;;0.68;0.60;;;1.40;99.90;;;;;;5019733;28;20430;-89
2021/12/03 04:58:03;;;;;;;2.85;1.77;;;1.40;99.90;;;;;;5019463;28;20029;-89
2021/12/03 05:00:51;;;;;;;0.60;0.60;;;1.50;99.90;;;;;;5034661;28;20041;-89
2021/12/03 05:03:23;;;;;;;1.42;1.33;;;1.30;99.90;;;;;;5019642;28;20025;-89
2021/12/03 05:05:56;;;;;;;1.17;0.60;;;1.30;99.90;;;;;;5018980;28;20222;-89
2021/12/03 05:08:52;;;;;;;2.47;1.85;;;1.40;99.90;;;;;;5019616;28;20502;-89
2021/12/03 05:11:22;;;;;;;0.30;0.30;;;1.30;99.90;;;;;;5035433;28;20128;-89
2021/12/03 05:13:57;;;;;;;0.98;0.90;;;1.20;99.90;;;;;;5018710;28;20120;-89
2021/12/03 05:16:39;;;;;;;2.38;1.67;;;1.30;99.90;;;;;;5019000;28;20021;-89
2021/12/03 05:19:14;;;;;;;0.55;0.50;;;1.10;99.90;;;;;;5019527;28;20120;-89
2021/12/03 05:22:13;;;;;;;;;;;;;;;;;;;;;
2021/12/03 05:25:02;;;;;;;;;;;;;;;;;;;;;
2021/12/03 05:27:38;;;;;;;0.30;0.30;;;1.10;99.90;;;;;;5035076;28;20045;-89
2021/12/03 05:30:39;;;;;;;0.57;0.57;;;1.20;99.90;;;;;;5019177;28;20026;-89
2021/12/03 05:33:19;;;;;;;0.30;0.30;;;1.00;99.90;;;;;;5020475;28;20044;-89
2021/12/03 05:36:10;;;;;;;3.90;2.00;;;1.00;99.90;;;;;;5003611;28;20059;-89
2021/12/03 05:38:47;;;;;;;0.30;0.30;;;0.90;99.90;;;;;;5019032;28;20038;-89
2021/12/03 05:41:19;;;;;;;0.40;0.40;;;1.00;99.90;;;;;;5018840;28;20041;-89
2021/12/03 05:43:51;;;;;;;1.00;1.00;;;1.10;99.90;;;;;;5017295;28;20114;-89
2021/12/03 05:46:27;;;;;;;0.65;0.65;;;0.90;99.90;;;;;;5019456;28;20022;-89
2021/12/03 05:48:58;;;;;;;0.40;0.40;;;1.10;99.90;;;;;;5019117;28;20083;-89
2021/12/03 05:51:32;;;;;;;2.25;1.17;;;1.10;99.90;;;;;;5018625;28;20110;-89
2021/12/03 05:54:12;;;;;;;0.40;0.40;;;1.10;99.90;;;;;;5019173;28;20022;-89
2021/12/03 05:56:43;;;;;;;1.95;1.77;;;1.10;99.90;;;;;;5018832;28;20496;-89
2021/12/03 05:59:15;;;;;;;11.48;3.40;;;1.00;99.90;;;;;;5034233;28;20033;-89
2021/12/03 06:01:46;;;;;;;7.70;3.97;;;1.00;99.90;;;;;;5018278;28;20017;-89
2021/12/03 06:04:27;;;;;;;0.88;0.88;;;1.00;99.90;;;;;;5019414;28;20025;-89
2021/12/03 06:07:03;;;;;;;2.38;1.02;;;1.00;99.90;;;;;;5018117;28;20037;-89
2021/12/03 06:09:30;;;;;;;7.32;2.15;;;1.00;99.90;;;;;;5018465;28;20034;-89
2021/12/03 06:11:56;;;;;;;0.40;0.40;;;1.10;99.90;;;;;;5018173;28;20034;-89
2021/12/03 06:14:32;;;;;;;0.70;0.70;;;1.00;99.90;;;;;;5033631;28;20420;-89
2021/12/03 06:17:06;;;;;;;6.32;2.10;;;1.10;99.90;;;;;;5018206;28;20036;-89
2021/12/03 06:19:38;;;;;;;2.85;2.65;;;1.10;99.90;;;;;;5018128;28;20021;-89
2021/12/03 06:22:10;;;;;;;0.43;0.43;;;1.10;99.90;;;;;;5018504;28;20087;-89
2021/12/03 06:24:40;;;;;;;0.40;0.40;;;1.20;99.90;;;;;;5018195;28;20022;-89
2021/12/03 06:27:16;;;;;;;0.40;0.40;;;1.20;99.90;;;;;;5017676;28;20075;-89
2021/12/03 06:29:45;;;;;;;0.50;0.50;;;1.20;99.90;;;;;;5018333;28;20025;-89
2021/12/03 06:32:21;;;;;;;0.30;0.30;;;1.30;99.90;;;;;;5013839;28;20121;-89
2021/12/03 06:35:08;;;;;;;0.52;0.52;;;1.30;99.90;;;;;;5006130;28;20489;-89
2021/12/03 06:37:55;;;;;;;2.47;1.52;;;1.10;99.90;;;;;;5004710;28;20030;-89
2021/12/03 06:40:35;;;;;;;0.40;0.40;;;1.10;99.90;;;;;;4999060;28;20030;-89
2021/12/03 06:43:24;;;;;;;0.90;0.88;;;1.20;99.90;;;;;;5018382;28;20018;-89
2021/12/03 06:49:23;;;;;;;2.60;1.10;;;1.20;99.90;;;;;;5033604;28;20025;-89
2021/12/03 06:52:15;;;;;;;0.30;0.30;;;1.10;99.90;;;;;;5014509;28;20034;-89
2021/12/03 06:54:56;;;;;;;1.33;1.23;;;1.10;99.90;;;;;;4997559;28;20084;-89
2021/12/03 06:57:27;;;;;;;3.30;2.05;;;1.10;99.90;;;;;;4997598;28;20025;-89
2021/12/03 06:59:59;;;;;;;2.58;1.23;;;1.20;99.90;;;;;;4998258;28;20053;-90
2021/12/03 07:02:25;;;;;;;0.30;0.30;;;1.10;99.90;;;;;;4997200;28;20030;-89
2021/12/03 07:04:54;;;;;;;3.97;1.77;;;1.20;99.90;;;;;;4997509;28;20492;-90
2021/12/03 07:07:47;;;;;;;0.30;0.30;;;1.20;99.90;;;;;;4997126;28;20037;-89
2021/12/03 07:10:23;;;;;;;2.60;1.73;;;1.20;99.90;;;;;;4999591;28;20037;-90
2021/12/03 07:13:14;;;;;;;0.30;0.30;;;0.90;99.90;;;;;;5022938;28;20489;-89
2021/12/03 07:16:00;;;;;;;0.40;0.40;;;1.10;99.90;;;;;;5016472;28;20084;-89
2021/12/03 07:18:34;;;;;;;0.40;0.40;;;1.20;99.90;;;;;;5000531;28;20034;-89
2021/12/03 07:21:15;;;;;;;0.75;0.75;;;1.20;99.90;;;;;;5008907;28;20025;-89
2021/12/03 07:23:50;;;;;;;2.25;1.65;;;1.30;99.90;;;;;;5028848;28;20037;-89
2021/12/03 07:26:42;;;;;;;1.40;1.02;;;1.00;99.90;;;;;;5022983;28;20076;-90
2021/12/03 07:29:10;;;;;;;0.40;0.40;;;1.00;99.90;;;;;;5014865;28;20033;-89
2021/12/03 07:31:46;;;;;;;1.13;1.02;;;1.10;99.90;;;;;;4996479;28;20128;-89
2021/12/03 07:34:34;;;;;;;0.30;0.30;;;1.40;99.90;;;;;;5006472;28;20043;-90
2021/12/03 07:37:09;;;;;;;3.72;1.75;;;1.30;99.90;;;;;;5012305;28;20025;-88
2021/12/03 07:39:55;;;;;;;0.35;0.35;;;1.40;99.90;;;;;;5016764;28;20009;-90
2021/12/03 07:42:44;;;;;;;0.30;0.30;;;1.30;99.90;;;;;;5003035;28;20141;-90
2021/12/03 07:45:13;;;;;;;0.30;0.30;;;1.30;99.90;;;;;;4997116;28;20040;-89
2021/12/03 07:47:41;;;;;;;1.83;1.25;;;1.40;99.90;;;;;;4997620;28;20044;-90
2021/12/03 07:50:14;;;;;;;0.40;0.40;;;1.20;99.90;;;;;;4995685;28;20030;-90
2021/12/03 07:52:40;;;;;;;3.60;2.35;;;1.20;99.90;;;;;;4996027;28;20049;-89
2021/12/03 07:55:07;;;;;;;1.02;0.95;;;1.30;99.90;;;;;;4995864;28;20298;-89
2021/12/03 07:57:33;;;;;;;0.63;0.63;;;1.30;99.90;;;;;;4996272;28;20025;-89
2021/12/03 08:00:00;;;;;;;0.30;0.30;;;1.30;99.90;;;;;;5005963;28;20151;-88
2021/12/03 08:02:29;;;;;;;0.85;0.85;;;1.40;99.90;;;;;;5014789;28;20029;-88
2021/12/03 08:05:00;;;;;;;4.32;1.65;;;1.40;99.90;;;;;;5017699;28;20025;-89
2021/12/03 08:07:32;;;;;;;0.30;0.30;;;1.50;99.90;;;;;;5035894;28;20055;-89
2021/12/03 08:10:00;;;;;;;2.65;2.55;;;1.60;99.90;;;;;;5035458;28;20099;-89
2021/12/03 08:12:29;;;;;;;0.85;0.85;;;1.80;99.90;;;;;;5035425;28;20033;-90
2021/12/03 08:14:57;;;;;;;0.47;0.47;;;1.80;99.90;;;;;;5025116;28;20025;-88
2021/12/03 08:17:28;;;;;;;1.00;1.00;;;1.50;99.90;;;;;;5009962;28;20398;-89
2021/12/03 08:19:54;;;;;;;0.57;0.57;;;1.60;99.90;;;;;;5014062;28;20482;-88
2021/12/03 08:22:21;;;;;;;0.45;0.45;;;1.70;99.90;;;;;;5014815;28;20040;-89
2021/12/03 08:24:46;;;;;;;0.30;0.30;;;2.00;99.90;;;;;;5014295;28;20051;-89
2021/12/03 08:27:22;;;;;;;;;;;;;;;;;;;;;
2021/12/03 08:29:48;;;;;;;0.25;0.25;;;1.90;99.90;;;;;;5031339;28;20049;-89
2021/12/03 08:32:17;;;;;;;0.50;0.50;;;1.70;99.90;;;;;;5012763;28;20064;-89
2021/12/03 08:34:45;;;;;;;3.90;2.80;;;1.80;99.90;;;;;;5013211;28;20287;-89
2021/12/03 08:37:11;;;;;;;1.55;0.88;;;1.50;99.90;;;;;;5016345;28;20029;-89
2021/12/03 08:39:38;;;;;;;0.40;0.40;;;1.40;99.90;;;;;;5014799;28;20133;-89
2021/12/03 08:42:06;;;;;;;67.80;3.47;;;1.50;99.90;;;;;;5014320;28;20033;-89
2021/12/03 08:44:34;;;;;;;3.63;1.63;;;1.50;99.90;;;;;;5013742;28;20546;-89
2021/12/03 08:47:05;;;;;;;3.25;2.13;;;1.50;99.90;;;;;;5014015;28;20454;-89
2021/12/03 08:49:52;;;;;;;4.47;2.25;;;1.50;99.90;;;;;;5014731;28;20029;-89
2021/12/03 08:53:03;;;;;;;2.58;1.48;;;1.50;99.90;;;;;;5012427;28;20329;-91
2021/12/03 08:55:56;;;;;;;0.30;0.30;;;1.40;99.90;;;;;;5034810;28;20038;-92
2021/12/03 08:58:22;;;;;;;0.52;0.52;;;1.90;99.90;;;;;;5012515;28;20116;-89
2021/12/03 09:00:48;;;;;;;0.50;0.50;;;1.80;99.90;;;;;;5015730;28;20133;-88
2021/12/03 09:03:14;;;;;;;0.30;0.30;;;1.60;99.90;;;;;;5016470;28;20026;-89
2021/12/03 09:05:41;;;;;;;0.30;0.30;;;1.80;99.90;;;;;;5015213;28;20029;-88
2021/12/03 09:08:09;;;;;;;1.15;1.15;;;2.30;99.90;;;;;;5014077;28;20088;-88
2021/12/03 09:10:35;;;;;;;2.92;1.65;;;2.70;99.90;;;;;;5016480;28;20132;-87
2021/12/03 09:13:01;;;;;;;0.40;0.40;;;2.40;99.90;;;;;;5013475;28;20038;-89
2021/12/03 09:15:36;;;;;;;0.75;0.75;;;2.50;99.90;;;;;;5014116;28;20029;-88
2021/12/03 09:18:24;;;;;;;2.10;1.75;;;2.60;99.90;;;;;;5018878;28;20272;-88
2021/12/03 09:23:32;;;;;;;2.28;1.67;;;3.10;99.90;;;;;;5034389;28;20021;-88
2021/12/03 09:26:07;;;;;;;0.40;0.40;;;3.20;99.90;;;;;;5017192;28;20117;-89
2021/12/03 09:28:34;;;;;;;6.88;2.13;;;3.50;99.90;;;;;;5012697;28;20029;-89
2021/12/03 09:31:00;;;;;;;0.73;0.73;;;3.30;99.90;;;;;;5016554;28;20087;-89
2021/12/03 09:33:29;;;;;;;1.00;0.93;;;3.60;99.90;;;;;;5020337;28;20033;-90
2021/12/03 09:36:01;;;;;;;0.43;0.43;;;3.80;99.90;;;;;;5018056;28;20033;-89
2021/12/03 09:38:34;;;;;;;0.30;0.30;;;4.00;99.90;;;;;;5020939;28;20517;-90
2021/12/03 09:41:13;;;;;;;1.50;0.90;;;4.50;99.90;;;;;;5016719;28;20030;-90
2021/12/03 09:43:49;;;;;;;0.25;0.25;;;4.90;99.90;;;;;;5016751;28;20108;-90
2021/12/03 09:46:27;;;;;;;7.78;1.10;;;5.70;99.90;;;;;;5031715;28;20109;-91
2021/12/03 09:49:19;;;;;;;0.15;0.15;;;5.90;98.70;;;;;;5017204;28;20026;-90
2021/12/03 09:51:58;;;;;;;0.52;0.52;;;6.00;97.60;;;;;;5015319;28;20021;-90
2021/12/03 09:54:29;;;;;;;0.65;0.25;;;5.20;95.20;;;;;;5014654;28;20079;-89
2021/12/03 09:57:07;;;;;;;8.57;1.25;;;4.50;96.60;;;;;;5017502;28;20025;-89
2021/12/03 10:02:16;;;;;;;0.50;0.50;;;3.50;99.10;;;;;;5036091;28;20025;-89
2021/12/03 10:04:52;;;;;;;0.98;0.77;;;3.10;99.90;;;;;;5017373;28;20112;-90
2021/12/03 10:22:32;;;;;;;2.30;1.20;;;3.70;99.90;;;;;;4960044;28;20054;-90
2021/12/03 11:46:36;;;;;;;0.55;0.55;;;8.60;71.40;;;;;;4949804;28;20044;-75
2021/12/03 11:55:37;;;;;;;1.15;1.05;;;9.00;70.20;;;;;;5023017;28;20026;-74
2021/12/03 11:58:36;;;;;;;0.20;0.20;;;8.70;73.10;;;;;;5010604;28;20034;-75
2021/12/03 12:40:24;;;;;;;0.95;0.95;;;4.00;92.40;;;;;;5007507;28;20041;-75
2021/12/03 12:45:34;;;;;;;1.00;0.77;;;3.80;91.90;;;;;;5006536;28;20025;-74
2021/12/03 12:49:44;;;;;;;0.30;0.30;;;3.70;92.70;;;;;;5018200;28;20040;-75
2021/12/03 12:57:27;;;;;;;0.20;0.20;;;5.40;89.50;;;;;;5015816;28;20034;-75
2021/12/03 13:15:30;;;;;;;0.20;0.20;;;9.70;67.40;;;;;;5030250;28;20034;-76
2021/12/03 13:29:44;;;;;;;0.47;0.47;;;7.40;72.90;;;;;;5014186;28;20117;-75
2021/12/03 14:08:38;;;;;;;1.27;1.00;;;3.50;91.10;;;;;;5025485;28;20802;-75
2021/12/03 14:23:02;;;;;;;0.30;0.30;;;3.30;92.30;;;;;;5011632;28;20029;-74
2021/12/03 14:33:56;;;;;;;0.32;0.32;;;2.80;92.80;;;;;;5005181;28;20041;-75
2021/12/03 14:41:20;;;;;;;0.50;0.50;;;2.60;93.40;;;;;;4965890;28;20027;-76
2021/12/03 14:44:08;;;;;;;0.30;0.30;;;2.70;94.20;;;;;;5009821;28;20091;-76
2021/12/03 14:49:23;;;;;;;0.30;0.30;;;2.80;94.90;;;;;;5013852;28;20033;-75
2021/12/03 14:57:40;;;;;;;0.30;0.30;;;3.10;93.90;;;;;;5007661;28;20022;-75
2021/12/03 15:00:19;;;;;;;0.30;0.30;;;2.80;94.70;;;;;;5018915;28;20033;-75
2021/12/03 15:03:07;;;;;;;0.30;0.30;;;2.70;95.10;;;;;;4990554;28;20482;-76
2021/12/03 15:32:13;;;;;;;0.43;0.43;;;2.00;96.70;;;;;;5001053;28;20477;-75
2021/12/03 15:34:49;;;;;;;0.40;0.40;;;1.80;97.30;;;;;;5013124;28;20036;-75
2021/12/03 15:58:11;;;;;;;0.35;0.35;;;1.70;99.90;;;;;;5011125;28;20037;-74
2021/12/03 16:08:25;;;;;;;0.40;0.40;;;1.60;99.90;;;;;;5014499;28;20502;-75
2021/12/03 16:11:11;;;;;;;0.30;0.30;;;1.50;99.90;;;;;;5023304;28;20051;-75
2021/12/03 16:13:46;;;;;;;1.30;1.20;;;1.40;99.90;;;;;;5020265;28;20034;-75
2021/12/03 16:27:02;;;;;;;0.93;0.93;;;1.50;99.90;;;;;;5008590;28;20022;-74
2021/12/03 16:51:27;;;;;;;0.30;0.30;;;1.40;99.90;;;;;;5032273;28;20022;-75
2021/12/03 16:53:56;;;;;;;0.93;0.93;;;1.30;99.90;;;;;;4986819;28;20037;-75
2021/12/03 16:56:27;;;;;;;1.02;1.02;;;1.20;99.90;;;;;;5013338;28;20293;-75
2021/12/03 16:58:55;;;;;;;0.40;0.40;;;1.20;99.90;;;;;;4991282;28;20033;-74
2021/12/03 17:01:28;;;;;;;0.75;0.75;;;1.10;99.90;;;;;;5028824;28;20025;-75
2021/12/03 17:04:01;;;;;;;0.40;0.40;;;1.10;99.90;;;;;;5022612;28;20377;-75
2021/12/03 17:56:54;;;;;;;1.45;1.35;;;0.50;99.90;;;;;;5012879;28;20371;-75
2021/12/03 17:59:42;;;;;;;0.32;0.32;;;0.50;99.90;;;;;;5014506;28;20105;-74
2021/12/03 18:55:33;;;;;;;0.40;0.40;;;0.30;99.90;;;;;;5016526;28;20025;-89
2021/12/03 18:58:03;;;;;;;0.40;0.40;;;0.30;99.90;;;;;;5000438;28;20116;-89
2021/12/03 19:00:32;;;;;;;0.30;0.30;;;0.40;99.90;;;;;;4999858;28;20064;-90
2021/12/03 19:03:01;;;;;;;0.40;0.40;;;0.50;99.90;;;;;;4999532;28;20025;-88
2021/12/03 19:08:11;;;;;;;0.30;0.30;;;0.50;99.90;;;;;;5021792;28;20029;-89
2021/12/03 19:10:44;;;;;;;0.40;0.40;;;0.40;99.90;;;;;;5002044;28;20056;-89
2021/12/03 19:13:16;;;;;;;0.43;0.43;;;0.40;99.90;;;;;;4999607;28;20029;-89
2021/12/03 19:15:42;;;;;;;0.40;0.40;;;0.40;99.90;;;;;;4999465;28;20029;-89
2021/12/03 19:18:09;;;;;;;0.30;0.30;;;0.20;99.90;;;;;;4999360;28;20512;-89
2021/12/03 19:20:39;;;;;;;0.40;0.40;;;0.30;99.90;;;;;;4998958;28;20030;-89
2021/12/03 19:23:05;;;;;;;0.40;0.40;;;0.30;99.90;;;;;;4998831;28;20021;-90
2021/12/03 19:25:30;;;;;;;0.35;0.35;;;0.30;99.90;;;;;;4998991;28;20022;-90
2021/12/03 19:27:56;;;;;;;0.40;0.40;;;0.30;99.90;;;;;;4998982;28;20079;-90
2021/12/03 19:30:22;;;;;;;0.70;0.70;;;0.30;99.90;;;;;;4999075;28;20056;-90
2021/12/03 19:32:48;;;;;;;0.40;0.40;;;0.30;99.90;;;;;;4998830;28;20090;-90
2021/12/03 19:35:13;;;;;;;2.53;1.20;;;0.30;99.90;;;;;;4999383;28;20096;-90
2021/12/03 19:37:39;;;;;;;1.38;0.80;;;0.20;99.90;;;;;;4998331;28;20026;-90
2021/12/03 19:40:10;;;;;;;0.30;0.30;;;0.30;99.90;;;;;;4998627;28;20128;-90
2021/12/03 19:42:44;;;;;;;0.30;0.30;;;0.40;99.90;;;;;;4998662;28;20071;-90
2021/12/03 19:45:16;;;;;;;0.40;0.40;;;0.50;99.90;;;;;;4998769;28;20375;-90
2021/12/03 19:50:23;;;;;;;;;;;0.30;99.90;;;;;;5031846;28;19912;-90
2021/12/03 19:52:57;;;;;;;;;;;0.50;99.90;;;;;;5015104;28;19997;-90
2021/12/03 19:55:23;;;;;;;;;;;0.50;99.90;;;;;;5015358;28;19980;-90
2021/12/03 19:57:48;;;;;;;;;;;0.30;99.90;;;;;;5015060;28;19909;-89
2021/12/03 20:00:14;;;;;;;;;;;0.30;99.90;;;;;;5015331;28;19904;-89
2021/12/03 20:02:40;;;;;;;;;;;0.30;99.90;;;;;;5014668;28;20440;-90
2021/12/03 20:05:06;;;;;;;;;;;0.30;99.90;;;;;;5015308;28;19909;-90
2021/12/03 20:07:31;;;;;;;;;;;0.40;99.90;;;;;;5024331;28;19916;-89
2021/12/03 20:10:00;;;;;;;;;;;0.50;99.90;;;;;;5014282;28;19948;-90
2021/12/03 20:12:27;;;;;;;;;;;0.40;99.90;;;;;;5007833;28;19909;-88
2021/12/03 20:14:52;;;;;;;;;;;0.50;99.90;;;;;;5002110;28;19905;-88
2021/12/03 20:19:52;;;;;;;;;;;0.60;99.90;;;;;;5017307;28;19963;-89
2021/12/03 20:22:22;;;;;;;;;;;0.50;99.90;;;;;;5016977;28;19959;-88
2021/12/03 20:25:34;;;;;;;;;;;0.50;99.90;;;;;;4998996;28;20285;-89
2021/12/03 20:27:45;;;;;;;;;;;0.50;99.90;;;;;;5012180;28;20258;-89
2021/12/03 20:30:15;;;;;;;;;;;0.50;99.90;;;;;;4998730;28;19909;-89
2021/12/03 20:32:50;;;;;;;;;;;0.30;99.90;;;;;;5015166;28;19946;-89
2021/12/03 20:35:28;;;;;;;;;;;0.20;99.90;;;;;;4998738;28;20062;-90
2021/12/03 20:37:55;;;;;;;;;;;0.30;99.90;;;;;;4998048;28;20008;-88
2021/12/03 20:40:26;;;;;;;;;;;0.10;99.90;;;;;;5002262;28;20377;-89
2021/12/03 20:59:00;;;;;;;;;;;0.00;99.90;;;;;;5030891;28;20011;-89
2021/12/03 21:09:15;;;;;;;;;;;-0.30;99.90;;;;;;5033058;28;19909;-89
2021/12/03 21:11:44;;;;;;;;;;;-0.50;99.90;;;;;;5022340;28;19936;-88
2021/12/03 21:14:16;;;;;;;;;;;-0.50;99.90;;;;;;5019751;28;19951;-89
2021/12/03 21:17:05;;;;;;;;;;;-0.50;99.90;;;;;;5018041;28;19964;-89
2021/12/03 21:22:07;;;;;;;;;;;-0.30;99.90;;;;;;5034324;28;19987;-89
2021/12/03 21:24:36;;;;;;;;;;;-0.30;99.90;;;;;;5001595;28;20366;-88
2021/12/03 21:27:07;;;;;;;;;;;-0.40;99.90;;;;;;5017495;28;19917;-88
2021/12/03 21:29:42;;;;;;;;;;;-0.40;99.90;;;;;;5018351;28;20332;-88
2021/12/03 21:32:21;;;;;;;;;;;-0.30;99.90;;;;;;5018453;28;19913;-89